createdAt,value
2022-08-26T00:01:29.062Z,88990.97
2022-08-26T00:03:56.995Z,88988.97
2022-08-26T00:06:25.160Z,89001.81
2022-08-26T00:08:52.104Z,89001.06
2022-08-26T00:11:26.254Z,89003.25
2022-08-26T00:13:57.717Z,89000.75
2022-08-26T00:16:27.043Z,89004.81
2022-08-26T00:18:54.390Z,88998.34
2022-08-26T00:21:21.416Z,89002.69
2022-08-26T00:23:48.789Z,89006.53
2022-08-26T00:26:15.822Z,89000.59
2022-08-26T00:28:42.990Z,88998.81
2022-08-26T00:31:11.343Z,88999.22
2022-08-26T00:33:39.908Z,88989.38
2022-08-26T00:36:08.127Z,88997.09
2022-08-26T00:38:46.787Z,88996.69
2022-08-26T00:41:14.469Z,89002.69
2022-08-26T00:43:47.349Z,89004.66
2022-08-26T00:46:19.842Z,89002.13
2022-08-26T00:48:50.263Z,89006.63
2022-08-26T00:51:21.076Z,89002.47
2022-08-26T00:53:57.846Z,89003.91
2022-08-26T00:56:33.870Z,88995.63
2022-08-26T00:59:05.210Z,89002.13
2022-08-26T01:01:32.738Z,88999.25
2022-08-26T01:04:00.620Z,88993.50
2022-08-26T01:06:27.864Z,88996.06
2022-08-26T01:08:54.987Z,88992.44
2022-08-26T01:11:22.208Z,88997.69
2022-08-26T01:13:54.230Z,88991.22
2022-08-26T01:16:22.774Z,88989.78
2022-08-26T01:18:49.678Z,88989.97
2022-08-26T01:21:42.528Z,88996.63
2022-08-26T01:24:11.024Z,88997.19
2022-08-26T01:26:42.577Z,88993.56
2022-08-26T01:29:14.948Z,88996.31
2022-08-26T01:31:55.906Z,88993.28
2022-08-26T01:34:35.180Z,89003.72
2022-08-26T01:37:15.798Z,88999.25
2022-08-26T01:39:47.301Z,88995.13
2022-08-26T01:42:15.742Z,88998.38
2022-08-26T01:44:53.264Z,88994.22
2022-08-26T01:47:22.829Z,88993.88
2022-08-26T01:49:54.210Z,88992.09
2022-08-26T01:52:27.621Z,88987.63
2022-08-26T01:54:57.699Z,88992.69
2022-08-26T01:57:26.110Z,88989.09
2022-08-26T01:59:57.572Z,88993.78
2022-08-26T02:02:24.660Z,88986.56
2022-08-26T02:04:59.929Z,88987.63
2022-08-26T02:07:28.198Z,88990.66
2022-08-26T02:09:55.376Z,88983.97
2022-08-26T02:12:23.192Z,89000.22
2022-08-26T02:14:53.846Z,89002.22
2022-08-26T02:17:29.411Z,88999.53
2022-08-26T02:19:58.085Z,88999.19
2022-08-26T02:22:25.317Z,89004.25
2022-08-26T02:24:59.068Z,89003.91
2022-08-26T02:27:32.439Z,89003.59
2022-08-26T02:30:20.917Z,89008.63
2022-08-26T02:32:49.577Z,89002.69
2022-08-26T02:35:18.223Z,89006.84
2022-08-26T02:37:49.546Z,89005.22
2022-08-26T02:40:20.322Z,89012.63
2022-08-26T02:42:49.185Z,89008.31
2022-08-26T02:45:16.400Z,89006.16
2022-08-26T02:47:51.508Z,89007.44
2022-08-26T02:50:19.898Z,89010.66
2022-08-26T02:52:46.957Z,89009.03
2022-08-26T02:55:14.360Z,89006.69
2022-08-26T02:57:41.361Z,89015.34
2022-08-26T03:00:10.177Z,89020.22
2022-08-26T03:02:37.331Z,89025.09
2022-08-26T03:05:04.960Z,89022.56
2022-08-26T03:07:31.805Z,89036.44
2022-08-26T03:09:58.890Z,89027.03
2022-08-26T03:12:25.994Z,89027.03
2022-08-26T03:14:53.163Z,89031.38
2022-08-26T03:17:20.145Z,89036.78
2022-08-26T03:19:49.011Z,89044.53
2022-08-26T03:22:19.856Z,89031.00
2022-08-26T03:24:47.490Z,89041.28
2022-08-26T03:27:14.538Z,89035.66
2022-08-26T03:29:41.808Z,89045.03
2022-08-26T03:32:09.323Z,89046.25
2022-08-26T03:34:37.733Z,89043.53
2022-08-26T03:37:05.622Z,89044.94
2022-08-26T03:39:32.671Z,89043.09
2022-08-26T03:42:00.327Z,89052.81
2022-08-26T03:44:27.152Z,89052.06
2022-08-26T03:46:54.251Z,89057.47
2022-08-26T03:49:21.406Z,89062.44
2022-08-26T03:51:48.385Z,89055.91
2022-08-26T03:54:15.348Z,89055.13
2022-08-26T03:56:42.209Z,89054.91
2022-08-26T03:59:09.155Z,89052.94
2022-08-26T04:01:36.525Z,89056.16
2022-08-26T04:04:04.147Z,89054.28
2022-08-26T04:06:36.661Z,89066.50
2022-08-26T04:09:12.889Z,89057.75
2022-08-26T04:11:40.721Z,89059.47
2022-08-26T04:14:11.408Z,89056.50
2022-08-26T04:16:38.355Z,89058.75
2022-08-26T04:19:06.090Z,89062.81
2022-08-26T04:21:32.971Z,89053.19
2022-08-26T04:23:59.977Z,89063.41
2022-08-26T04:26:33.285Z,89051.34
2022-08-26T04:29:01.675Z,89058.31
2022-08-26T04:31:28.589Z,89058.56
2022-08-26T04:33:58.851Z,89053.22
2022-08-26T04:36:25.879Z,89060.31
2022-08-26T04:38:52.939Z,89052.94
2022-08-26T04:41:21.052Z,89053.56
2022-08-26T04:43:48.715Z,89058.19
2022-08-26T04:46:19.126Z,89060.97
2022-08-26T04:48:46.349Z,89060.19
2022-08-26T04:51:13.242Z,89056.94
2022-08-26T04:53:40.334Z,89051.13
2022-08-26T04:56:07.498Z,89056.91
2022-08-26T04:58:35.326Z,89059.66
2022-08-26T05:01:02.403Z,89056.97
2022-08-26T05:03:30.237Z,89060.16
2022-08-26T05:05:58.436Z,89060.34
2022-08-26T05:08:25.939Z,89061.25
2022-08-26T05:10:54.920Z,89058.00
2022-08-26T05:13:24.961Z,89057.69
2022-08-26T05:15:52.637Z,89061.47
2022-08-26T05:18:21.142Z,89063.50
2022-08-26T05:20:50.575Z,89064.22
2022-08-26T05:23:18.773Z,89067.78
2022-08-26T05:25:48.232Z,89074.25
2022-08-26T05:28:18.727Z,89065.22
2022-08-26T05:30:46.224Z,89067.94
2022-08-26T05:33:13.412Z,89071.81
2022-08-26T05:35:41.177Z,89076.94
2022-08-26T05:38:12.767Z,89069.88
2022-08-26T05:40:43.668Z,89072.53
2022-08-26T05:43:11.722Z,89065.31
2022-08-26T05:45:45.269Z,89072.75
2022-08-26T05:48:15.023Z,89074.03
2022-08-26T05:50:48.726Z,89070.09
2022-08-26T05:53:18.442Z,89076.75
2022-08-26T05:55:48.906Z,89077.28
2022-08-26T05:58:17.497Z,89078.91
2022-08-26T06:00:44.895Z,89084.59
2022-08-26T06:03:11.852Z,89076.47
2022-08-26T06:05:40.528Z,89088.44
2022-08-26T06:08:08.175Z,89081.94
2022-08-26T06:10:43.084Z,89091.84
2022-08-26T06:13:11.854Z,89089.00
2022-08-26T06:15:44.594Z,89088.34
2022-08-26T06:18:12.582Z,89091.19
2022-08-26T06:20:39.503Z,89077.91
2022-08-26T06:23:09.397Z,89086.50
2022-08-26T06:25:40.890Z,89076.66
2022-08-26T06:28:08.338Z,89068.91
2022-08-26T06:30:40.498Z,89070.63
2022-08-26T06:33:08.959Z,89071.59
2022-08-26T06:35:37.991Z,89074.22
2022-08-26T06:38:04.967Z,89074.69
2022-08-26T06:40:32.531Z,89067.19
2022-08-26T06:42:59.468Z,89078.03
2022-08-26T06:45:26.817Z,89070.25
2022-08-26T06:47:53.689Z,89072.22
2022-08-26T06:50:21.406Z,89073.38
2022-08-26T06:52:49.267Z,89068.28
2022-08-26T06:55:16.330Z,89079.63
2022-08-26T06:57:45.125Z,89081.97
2022-08-26T07:00:13.395Z,89075.69
2022-08-26T07:02:41.135Z,89077.56
2022-08-26T07:05:13.918Z,89075.00
2022-08-26T07:07:40.878Z,89071.03
2022-08-26T07:10:10.464Z,89064.44
2022-08-26T07:12:37.313Z,89069.84
2022-08-26T07:15:04.831Z,89067.00
2022-08-26T07:17:31.700Z,89062.47
2022-08-26T07:20:00.895Z,89066.72
2022-08-26T07:22:27.797Z,89062.56
2022-08-26T07:24:55.537Z,89064.47
2022-08-26T07:27:22.689Z,89065.06
2022-08-26T07:29:49.838Z,89063.00
2022-08-26T07:32:20.229Z,89058.56
2022-08-26T07:34:50.144Z,89048.06
2022-08-26T07:37:17.662Z,89057.91
2022-08-26T07:39:44.730Z,89055.97
2022-08-26T07:42:14.419Z,89061.88
2022-08-26T07:44:43.130Z,89067.00
2022-08-26T07:47:25.040Z,89056.69
2022-08-26T07:49:54.969Z,89061.28
2022-08-26T07:52:26.186Z,89063.13
2022-08-26T07:54:54.114Z,89056.09
2022-08-26T07:57:20.993Z,89056.38
2022-08-26T07:59:47.944Z,89050.25
2022-08-26T08:02:14.746Z,89055.81
2022-08-26T08:04:43.290Z,89063.56
2022-08-26T08:07:11.561Z,89058.13
2022-08-26T08:09:40.774Z,89053.81
2022-08-26T08:12:08.066Z,89044.91
2022-08-26T08:14:42.031Z,89046.63
2022-08-26T08:17:09.161Z,89040.72
2022-08-26T08:19:36.532Z,89040.72
2022-08-26T08:22:04.010Z,89048.63
2022-08-26T08:24:34.688Z,89040.81
2022-08-26T08:27:02.216Z,89049.16
2022-08-26T08:29:29.748Z,89041.19
2022-08-26T08:31:58.754Z,89039.22
2022-08-26T08:34:28.463Z,89029.63
2022-08-26T08:36:56.778Z,89037.09
2022-08-26T08:39:24.288Z,89023.84
2022-08-26T08:42:09.185Z,89033.97
2022-08-26T08:44:44.737Z,89025.00
2022-08-26T08:47:31.183Z,89019.91
2022-08-26T08:50:03.408Z,89027.75
2022-08-26T08:52:36.364Z,89025.00
2022-08-26T08:55:11.058Z,89010.63
2022-08-26T08:57:48.594Z,89015.66
2022-08-26T09:00:20.949Z,89012.41
2022-08-26T09:03:10.502Z,89002.81
2022-08-26T09:05:46.676Z,89013.22
2022-08-26T09:08:22.261Z,89002.13
2022-08-26T09:10:59.334Z,89006.00
2022-08-26T09:13:27.630Z,88993.97
2022-08-26T09:16:10.368Z,89003.31
2022-08-26T09:18:46.809Z,88999.56
2022-08-26T09:21:16.307Z,88997.72
2022-08-26T09:23:49.462Z,88996.16
2022-08-26T09:26:31.292Z,88994.69
2022-08-26T09:29:02.812Z,88994.34
2022-08-26T09:31:35.802Z,88986.00
2022-08-26T09:34:08.474Z,88987.22
2022-08-26T09:36:42.399Z,88988.47
2022-08-26T09:39:34.051Z,88981.34
2022-08-26T09:42:24.339Z,88986.13
2022-08-26T09:45:02.467Z,88985.72
2022-08-26T09:47:34.371Z,88992.22
2022-08-26T09:50:19.001Z,88980.31
2022-08-26T09:52:45.970Z,88988.47
2022-08-26T09:55:20.684Z,88993.41
2022-08-26T09:57:51.458Z,88986.69
2022-08-26T10:00:35.012Z,88990.56
2022-08-26T10:03:25.960Z,88988.03
2022-08-26T10:06:06.396Z,88986.41
2022-08-26T10:08:47.500Z,88976.66
2022-08-26T10:11:41.869Z,88982.97
2022-08-26T10:14:20.232Z,88986.03
2022-08-26T10:16:47.179Z,88980.34
2022-08-26T10:19:19.533Z,88971.19
2022-08-26T10:22:06.122Z,88974.03
2022-08-26T10:24:43.085Z,88969.88
2022-08-26T10:27:35.156Z,88971.69
2022-08-26T10:30:10.600Z,88970.13
2022-08-26T10:32:41.736Z,88972.22
2022-08-26T10:35:12.587Z,88976.03
2022-08-26T10:37:48.875Z,88965.69
2022-08-26T10:40:46.593Z,88966.06
2022-08-26T10:43:20.431Z,88956.28
2022-08-26T10:45:57.311Z,88957.34
2022-08-26T10:48:39.327Z,88962.66
2022-08-26T10:51:06.846Z,88969.31
2022-08-26T10:54:04.836Z,88965.63
2022-08-26T10:56:57.570Z,88961.75
2022-08-26T10:59:34.916Z,88958.81
2022-08-26T11:02:08.907Z,88950.44
2022-08-26T11:05:10.218Z,88953.09
2022-08-26T11:07:45.780Z,88944.75
2022-08-26T11:10:21.682Z,88949.03
2022-08-26T11:12:56.088Z,88947.03
2022-08-26T11:15:26.162Z,88942.09
2022-08-26T11:17:53.318Z,88941.75
2022-08-26T11:20:23.744Z,88939.25
2022-08-26T11:22:53.321Z,88941.44
2022-08-26T11:25:20.779Z,88931.78
2022-08-26T11:27:55.376Z,88935.22
2022-08-26T11:30:22.178Z,88933.09
2022-08-26T11:32:54.812Z,88930.28
2022-08-26T11:35:21.856Z,88934.53
2022-08-26T11:37:58.661Z,88921.56
2022-08-26T11:40:32.892Z,88931.97
2022-08-26T11:43:07.999Z,88920.41
2022-08-26T11:45:43.451Z,88909.31
2022-08-26T11:48:34.390Z,88906.53
2022-08-26T11:51:21.076Z,88903.19
2022-08-26T11:53:50.267Z,88915.97
2022-08-26T11:56:26.677Z,88907.97
2022-08-26T11:58:58.439Z,88902.28
2022-08-26T12:01:34.140Z,88899.72
2022-08-26T12:04:01.457Z,88884.56
2022-08-26T12:06:45.933Z,88891.03
2022-08-26T12:09:31.425Z,88877.00
2022-08-26T12:12:29.176Z,88872.56
2022-08-26T12:15:12.072Z,88863.13
2022-08-26T12:17:39.934Z,88864.69
2022-08-26T12:20:28.399Z,88863.09
2022-08-26T12:22:55.350Z,88864.34
2022-08-26T12:25:23.975Z,88872.44
2022-08-26T12:27:53.765Z,88872.13
2022-08-26T12:30:26.209Z,88856.41
2022-08-26T12:33:17.999Z,88845.69
2022-08-26T12:35:56.263Z,88851.19
2022-08-26T12:38:25.753Z,88856.53
2022-08-26T12:40:53.363Z,88839.53
2022-08-26T12:43:40.202Z,88845.16
2022-08-26T12:46:10.235Z,88831.28
2022-08-26T12:48:40.389Z,88839.81
2022-08-26T12:51:15.304Z,88847.28
2022-08-26T12:53:44.204Z,88850.09
2022-08-26T12:56:24.916Z,88838.78
2022-08-26T12:59:07.947Z,88861.81
2022-08-26T13:01:42.182Z,88837.13
2022-08-26T13:04:34.997Z,88831.13
2022-08-26T13:07:25.112Z,88835.16
2022-08-26T13:09:54.863Z,88830.16
2022-08-26T13:12:27.941Z,88833.72
2022-08-26T13:14:54.891Z,88833.72
2022-08-26T13:17:21.835Z,88833.53
2022-08-26T13:19:49.044Z,88840.75
2022-08-26T13:22:19.119Z,88828.78
2022-08-26T13:24:46.309Z,88826.13
2022-08-26T13:27:15.141Z,88817.47
2022-08-26T13:29:42.245Z,88817.94
2022-08-26T13:32:09.969Z,88828.25
2022-08-26T13:34:38.443Z,88811.91
2022-08-26T13:37:06.270Z,88822.16
2022-08-26T13:39:33.184Z,88830.66
2022-08-26T13:42:00.138Z,88829.31
2022-08-26T13:44:27.082Z,88840.34
2022-08-26T13:46:54.160Z,88829.22
2022-08-26T13:49:21.213Z,88825.13
2022-08-26T13:51:48.249Z,88813.44
2022-08-26T13:54:15.187Z,88800.78
2022-08-26T13:56:42.169Z,88805.31
2022-08-26T13:59:09.262Z,88811.47
2022-08-26T14:01:36.246Z,88818.56
2022-08-26T14:04:04.369Z,88821.56
2022-08-26T14:06:31.430Z,88810.16
2022-08-26T14:08:58.537Z,88819.75
2022-08-26T14:11:25.650Z,88816.53
2022-08-26T14:13:52.551Z,88802.22
2022-08-26T14:16:33.960Z,88809.47
2022-08-26T14:19:02.195Z,88811.13
2022-08-26T14:21:35.785Z,88808.34
2022-08-26T14:24:03.669Z,88799.25
2022-08-26T14:26:30.615Z,88807.72
2022-08-26T14:28:59.220Z,88804.56
2022-08-26T14:31:27.758Z,88804.56
2022-08-26T14:33:58.772Z,88802.47
2022-08-26T14:36:25.776Z,88806.44
2022-08-26T14:38:53.100Z,88806.75
2022-08-26T14:41:20.842Z,88812.59
2022-08-26T14:43:54.944Z,88800.25
2022-08-26T14:46:21.802Z,88796.72
2022-08-26T14:48:48.665Z,88793.50
2022-08-26T14:51:15.688Z,88800.41
2022-08-26T14:53:42.595Z,88807.41
2022-08-26T14:56:12.640Z,88799.09
2022-08-26T14:58:44.447Z,88815.50
2022-08-26T15:01:11.336Z,88812.34
2022-08-26T15:03:38.275Z,88810.41
2022-08-26T15:06:05.464Z,88798.53
2022-08-26T15:08:32.779Z,88801.09
2022-08-26T15:10:59.789Z,88800.53
2022-08-26T15:13:26.832Z,88803.88
2022-08-26T15:15:53.873Z,88798.72
2022-08-26T15:18:20.990Z,88798.38
2022-08-26T15:20:48.768Z,88804.41
2022-08-26T15:23:16.304Z,88805.41
2022-08-26T15:25:45.988Z,88806.44
2022-08-26T15:28:12.861Z,88803.97
2022-08-26T15:30:39.839Z,88810.72
2022-08-26T15:33:06.757Z,88806.22
2022-08-26T15:35:42.939Z,88808.66
2022-08-26T15:38:10.979Z,88806.31
2022-08-26T15:40:38.440Z,88816.38
2022-08-26T15:43:18.540Z,88813.44
2022-08-26T15:45:54.008Z,88810.44
2022-08-26T15:48:22.641Z,88817.16
2022-08-26T15:51:18.469Z,88822.41
2022-08-26T15:53:45.471Z,88819.97
2022-08-26T15:56:12.681Z,88823.31
2022-08-26T15:58:39.538Z,88821.69
2022-08-26T16:01:07.875Z,88826.84
2022-08-26T16:03:35.420Z,88821.03
2022-08-26T16:06:02.372Z,88822.16
2022-08-26T16:08:29.336Z,88829.44
2022-08-26T16:11:04.025Z,88827.00
2022-08-26T16:13:39.625Z,88832.00
2022-08-26T16:16:08.403Z,88830.25
2022-08-26T16:18:35.485Z,88829.91
2022-08-26T16:21:13.604Z,88833.06
2022-08-26T16:23:45.033Z,88838.09
2022-08-26T16:26:18.807Z,88835.00
2022-08-26T16:28:45.770Z,88826.44
2022-08-26T16:31:13.603Z,88833.63
2022-08-26T16:33:40.570Z,88835.31
2022-08-26T16:36:08.538Z,88843.88
2022-08-26T16:38:36.719Z,88844.97
2022-08-26T16:41:04.270Z,88849.38
2022-08-26T16:43:31.614Z,88853.91
2022-08-26T16:45:58.552Z,88844.06
2022-08-26T16:48:25.518Z,88861.53
2022-08-26T16:50:52.536Z,88861.31
2022-08-26T16:53:19.564Z,88857.75
2022-08-26T16:55:48.404Z,88872.28
2022-08-26T16:58:15.644Z,88862.00
2022-08-26T17:00:43.136Z,88870.09
2022-08-26T17:03:10.217Z,88878.53
2022-08-26T17:05:37.599Z,88878.63
2022-08-26T17:08:05.646Z,88889.09
2022-08-26T17:10:33.527Z,88875.66
2022-08-26T17:13:01.040Z,88881.94
2022-08-26T17:15:28.230Z,88883.41
2022-08-26T17:17:55.471Z,88891.84
2022-08-26T17:20:24.082Z,88898.22
2022-08-26T17:22:53.681Z,88896.28
2022-08-26T17:25:32.121Z,88913.59
2022-08-26T17:27:59.497Z,88919.25
2022-08-26T17:30:27.054Z,88922.22
2022-08-26T17:32:57.009Z,88924.66
2022-08-26T17:35:24.852Z,88932.47
2022-08-26T17:37:52.090Z,88934.34
2022-08-26T17:40:22.371Z,88933.81
2022-08-26T17:42:49.467Z,88933.09
2022-08-26T17:45:17.042Z,88936.88
2022-08-26T17:47:44.879Z,88940.16
2022-08-26T17:50:15.099Z,88942.06
2022-08-26T17:52:42.755Z,88941.69
2022-08-26T17:55:12.041Z,88939.38
2022-08-26T17:57:40.796Z,88943.88
2022-08-26T18:00:13.629Z,88942.88
2022-08-26T18:02:42.256Z,88941.63
2022-08-26T18:05:10.214Z,88947.97
2022-08-26T18:07:43.770Z,88943.41
2022-08-26T18:10:13.450Z,88948.34
2022-08-26T18:12:40.877Z,88950.63
2022-08-26T18:15:08.879Z,88940.03
2022-08-26T18:17:35.838Z,88955.09
2022-08-26T18:20:02.972Z,88954.00
2022-08-26T18:22:30.141Z,88957.00
2022-08-26T18:24:59.479Z,88959.31
2022-08-26T18:27:26.714Z,88955.91
2022-08-26T18:29:53.504Z,88962.50
2022-08-26T18:32:20.310Z,88961.38
2022-08-26T18:34:47.225Z,88960.94
2022-08-26T18:39:45.705Z,88962.94
2022-08-26T18:42:12.563Z,88973.25
2022-08-26T18:44:39.338Z,88978.16
2022-08-26T18:47:06.563Z,88983.31
2022-08-26T18:49:33.471Z,88987.03
2022-08-26T18:52:00.440Z,88981.16
2022-08-26T18:54:27.636Z,88978.72
2022-08-26T18:56:54.803Z,88977.72
2022-08-26T18:59:27.948Z,88999.34
2022-08-26T19:01:57.449Z,89003.06
2022-08-26T19:04:24.514Z,88994.03
2022-08-26T19:06:52.804Z,89004.63
2022-08-26T19:09:21.061Z,89005.06
2022-08-26T19:11:49.792Z,89008.75
2022-08-26T19:14:17.167Z,89001.25
2022-08-26T19:16:46.887Z,89007.13
2022-08-26T19:19:15.176Z,89008.69
2022-08-26T19:21:42.458Z,89015.84
2022-08-26T19:24:11.966Z,89015.38
2022-08-26T19:26:38.908Z,89020.50
2022-08-26T19:29:06.226Z,89019.50
2022-08-26T19:31:33.171Z,89019.91
2022-08-26T19:34:00.692Z,89024.91
2022-08-26T19:36:28.657Z,89028.75
2022-08-26T19:38:55.877Z,89027.03
2022-08-26T19:41:36.490Z,89034.13
2022-08-26T19:44:09.336Z,89034.56
2022-08-26T19:49:09.088Z,89023.00
2022-08-26T19:51:36.509Z,89033.63
2022-08-26T19:54:03.812Z,89045.59
2022-08-26T19:56:30.768Z,89046.75
2022-08-26T19:58:57.677Z,89054.03
2022-08-26T20:01:24.731Z,89043.25
2022-08-26T20:03:51.776Z,89047.06
2022-08-26T20:06:19.266Z,89046.78
2022-08-26T20:08:46.372Z,89056.63
2022-08-26T20:11:16.460Z,89059.59
2022-08-26T20:13:44.443Z,89057.09
2022-08-26T20:16:11.908Z,89056.09
2022-08-26T20:18:40.953Z,89065.19
2022-08-26T20:21:08.011Z,89056.72
2022-08-26T20:23:34.952Z,89067.44
2022-08-26T20:26:01.841Z,89064.56
2022-08-26T20:28:30.348Z,89070.38
2022-08-26T20:30:57.340Z,89069.53
2022-08-26T20:33:24.289Z,89078.94
2022-08-26T20:35:51.424Z,89079.50
2022-08-26T20:38:21.449Z,89075.91
2022-08-26T20:40:49.027Z,89086.44
2022-08-26T20:43:16.033Z,89089.53
2022-08-26T20:45:43.093Z,89082.09
2022-08-26T20:48:10.173Z,89075.22
2022-08-26T20:50:37.336Z,89074.34
2022-08-26T20:53:04.223Z,89083.22
2022-08-26T20:55:31.487Z,89083.06
2022-08-26T20:57:58.441Z,89089.94
2022-08-26T21:00:26.969Z,89091.78
2022-08-26T21:02:56.064Z,89086.16
2022-08-26T21:05:23.614Z,89091.44
2022-08-26T21:07:50.505Z,89085.75
2022-08-26T21:10:17.892Z,89085.84
2022-08-26T21:12:45.439Z,89102.50
2022-08-26T21:15:12.321Z,89099.66
2022-08-26T21:17:39.209Z,89105.06
2022-08-26T21:20:06.593Z,89107.63
2022-08-26T21:22:33.468Z,89101.47
2022-08-26T21:25:00.547Z,89107.31
2022-08-26T21:27:27.976Z,89089.31
2022-08-26T21:29:55.290Z,89108.75
2022-08-26T21:32:22.311Z,89111.28
2022-08-26T21:34:49.282Z,89112.75
2022-08-26T21:37:16.742Z,89114.00
2022-08-26T21:39:44.207Z,89105.75
2022-08-26T21:42:11.140Z,89118.16
2022-08-26T21:44:38.171Z,89108.03
2022-08-26T21:47:05.402Z,89114.19
2022-08-26T21:49:32.324Z,89112.00
2022-08-26T21:51:59.693Z,89109.13
2022-08-26T21:54:26.690Z,89109.69
2022-08-26T21:56:53.598Z,89097.94
2022-08-26T21:59:20.576Z,89098.66
2022-08-26T22:01:48.115Z,89097.41
2022-08-26T22:04:16.045Z,89098.50
2022-08-26T22:06:45.869Z,89100.50
2022-08-26T22:09:15.252Z,89110.66
2022-08-26T22:11:42.602Z,89097.44
2022-08-26T22:14:10.315Z,89106.31
2022-08-26T22:16:38.355Z,89097.78
2022-08-26T22:19:05.695Z,89100.09
2022-08-26T22:21:32.883Z,89093.25
2022-08-26T22:24:00.163Z,89093.56
2022-08-26T22:26:30.577Z,89092.63
2022-08-26T22:28:59.533Z,89087.03
2022-08-26T22:31:37.812Z,89082.06
2022-08-26T22:34:08.794Z,89081.91
2022-08-26T22:36:43.749Z,89087.75
2022-08-26T22:39:13.233Z,89088.31
2022-08-26T22:41:40.832Z,89090.69
2022-08-26T22:44:07.805Z,89083.09
2022-08-26T22:46:35.806Z,89093.25
2022-08-26T22:49:03.101Z,89080.94
2022-08-26T22:51:30.348Z,89081.09
2022-08-26T22:53:57.384Z,89079.34
2022-08-26T22:56:24.280Z,89083.16
2022-08-26T22:58:51.218Z,89077.25
2022-08-26T23:01:18.347Z,89078.50
2022-08-26T23:03:45.480Z,89081.22
2022-08-26T23:06:12.488Z,89069.91
2022-08-26T23:08:41.249Z,89076.59
2022-08-26T23:11:10.603Z,89081.84
2022-08-26T23:13:38.518Z,89087.44
2022-08-26T23:16:08.784Z,89085.63
2022-08-26T23:18:36.631Z,89081.84
2022-08-26T23:21:03.713Z,89088.22
2022-08-26T23:23:30.819Z,89093.88
2022-08-26T23:25:57.793Z,89078.38
2022-08-26T23:28:25.170Z,89079.81
2022-08-26T23:30:52.502Z,89075.09
2022-08-26T23:33:19.555Z,89073.50
2022-08-26T23:35:46.383Z,89079.44
2022-08-26T23:38:14.107Z,89073.69
2022-08-26T23:40:41.715Z,89081.66
2022-08-26T23:43:10.518Z,89085.66
2022-08-26T23:45:37.947Z,89083.50
2022-08-26T23:48:05.530Z,89089.31
2022-08-26T23:50:32.841Z,89094.72
2022-08-26T23:52:59.943Z,89099.81
2022-08-26T23:55:27.234Z,89094.94
2022-08-26T23:57:54.328Z,89088.09
